Time;durP1;ratioP1;P1;durP2;ratioP2;P2;SDS_P1;SDS_P2;PMS_P1;PMS_P2;Temp;Humidity;BMP_temperature;BMP_pressure;BME280_temperature;BME280_humidity;BME280_pressure;Samples;Min_cycle;Max_cycle;Signal;HPM_P1;HPM_P2
2024/04/09 00:01:48;;;;;;;8.18;3.95;;;20.10;60.70;21.70;100136.00;;;;5389573;26;20911;-76
2024/04/09 00:04:16;;;;;;;7.05;4.15;;;20.10;60.90;21.60;100124.00;;;;5384048;26;20277;-76
2024/04/09 00:06:42;;;;;;;5.40;3.55;;;20.00;61.00;21.60;100122.00;;;;5376042;26;20238;-76
2024/04/09 00:09:11;;;;;;;5.45;3.70;;;20.00;61.00;21.60;100117.00;;;;5376030;26;20327;-76
2024/04/09 00:11:37;;;;;;;6.60;3.95;;;20.00;61.20;21.60;100109.00;;;;5370131;26;20229;-76
2024/04/09 00:14:08;;;;;;;6.63;4.30;;;19.90;61.30;21.50;100094.00;;;;5394075;26;20312;-76
2024/04/09 00:16:39;;;;;;;5.70;4.35;;;19.90;61.50;21.60;100103.00;;;;5373556;26;20297;-76
2024/04/09 00:19:08;;;;;;;7.75;4.30;;;19.90;61.50;21.50;100116.00;;;;5353743;26;20238;-76
2024/04/09 00:21:34;;;;;;;6.45;4.28;;;19.90;61.60;21.50;100138.00;;;;5372903;26;20617;-76
2024/04/09 00:24:03;;;;;;;5.72;3.92;;;19.80;61.60;21.50;100123.00;;;;5377155;26;20230;-76
2024/04/09 00:26:31;;;;;;;4.80;3.65;;;19.80;61.70;21.40;100148.00;;;;5381236;26;20856;-76
2024/04/09 00:29:00;;;;;;;7.15;4.05;;;19.80;61.70;21.40;100134.00;;;;5376463;26;20331;-76
2024/04/09 00:31:28;;;;;;;6.22;4.10;;;19.80;61.80;21.40;100127.00;;;;5375445;26;20235;-76
2024/04/09 00:33:57;;;;;;;4.13;3.72;;;19.70;62.60;21.40;100136.00;;;;5376993;26;20234;-76
2024/04/09 00:36:23;;;;;;;5.85;4.03;;;19.70;61.90;21.40;100143.00;;;;5383253;26;20237;-76
2024/04/09 00:38:54;;;;;;;4.68;3.42;;;19.70;62.00;21.40;100163.00;;;;5387902;26;20246;-76
2024/04/09 00:41:20;;;;;;;4.38;3.63;;;19.70;62.00;21.30;100161.00;;;;5375174;26;20245;-76
2024/04/09 00:43:48;;;;;;;6.03;3.35;;;19.70;62.00;21.30;100183.00;;;;5387293;26;20909;-76
2024/04/09 00:46:15;;;;;;;3.83;2.95;;;19.60;62.10;21.30;100187.00;;;;5375070;26;20242;-76
2024/04/09 00:48:47;;;;;;;3.58;3.00;;;19.60;62.10;21.20;100185.00;;;;5375267;26;20242;-77
2024/04/09 00:51:18;;;;;;;4.88;2.80;;;19.60;62.20;21.20;100190.00;;;;5388402;26;20391;-76
2024/04/09 00:53:52;;;;;;;5.10;2.63;;;19.60;62.10;21.20;100191.00;;;;5386694;26;20260;-77
2024/04/09 00:56:18;;;;;;;3.80;2.20;;;19.60;62.10;21.20;100169.00;;;;5383299;26;20233;-76
2024/04/09 00:58:49;;;;;;;4.88;2.20;;;19.60;61.90;21.20;100174.00;;;;5378236;26;20234;-76
2024/04/09 01:01:16;;;;;;;2.67;1.65;;;19.50;62.00;21.20;100156.00;;;;5376452;26;20375;-76
2024/04/09 01:03:48;;;;;;;5.47;1.73;;;19.50;62.00;21.10;100146.00;;;;5391012;26;20285;-76
2024/04/09 01:06:15;;;;;;;3.47;1.85;;;19.50;62.00;21.10;100154.00;;;;5375858;26;20249;-76
2024/04/09 01:08:44;;;;;;;5.53;1.92;;;19.50;61.90;21.10;100159.00;;;;5375439;26;20234;-76
2024/04/09 01:11:10;;;;;;;2.58;1.33;;;19.50;61.90;21.10;100167.00;;;;5398629;26;20237;-76
2024/04/09 01:13:41;;;;;;;3.22;1.58;;;19.50;61.90;21.00;100164.00;;;;5410725;26;20898;-76
2024/04/09 01:16:10;;;;;;;3.83;1.80;;;19.40;62.00;21.00;100172.00;;;;5373442;26;20238;-76
2024/04/09 01:18:39;;;;;;;2.20;1.35;;;19.40;62.00;21.00;100175.00;;;;5375992;26;20842;-76
2024/04/09 01:21:08;;;;;;;2.60;1.63;;;19.40;61.90;21.00;100173.00;;;;5376337;26;20234;-76
2024/04/09 01:23:39;;;;;;;15.88;1.60;;;19.40;62.00;21.00;100180.00;;;;5364860;26;20269;-76
2024/04/09 01:26:09;;;;;;;2.58;1.33;;;19.40;62.10;21.00;100180.00;;;;5372756;26;20246;-76
2024/04/09 01:28:39;;;;;;;3.50;1.58;;;19.40;62.00;20.90;100162.00;;;;5377555;26;20840;-76
2024/04/09 01:31:08;;;;;;;2.15;1.25;;;19.40;62.00;20.90;100162.00;;;;5378645;26;20720;-76
2024/04/09 01:33:36;;;;;;;3.30;1.33;;;19.30;61.90;20.90;100152.00;;;;5375542;26;20771;-76
2024/04/09 01:36:04;;;;;;;1.85;1.10;;;19.30;62.00;20.80;100152.00;;;;5389934;26;20341;-76
2024/04/09 01:38:33;;;;;;;3.38;1.30;;;19.30;62.20;20.80;100164.00;;;;5375157;26;20273;-76
2024/04/09 01:41:01;;;;;;;2.75;1.35;;;19.20;62.10;20.80;100168.00;;;;5375898;26;20242;-76
2024/04/09 01:43:31;;;;;;;4.70;1.30;;;19.20;62.30;20.80;100187.00;;;;5377239;26;20242;-76
2024/04/09 01:45:57;;;;;;;1.75;1.00;;;19.20;62.20;20.80;100196.00;;;;5375452;26;20350;-76
2024/04/09 01:48:25;;;;;;;2.55;1.05;;;19.20;62.30;20.80;100201.00;;;;5375638;26;20238;-76
2024/04/09 01:50:51;;;;;;;2.92;1.23;;;19.10;62.30;20.80;100195.00;;;;5378694;26;20234;-76
2024/04/09 01:53:21;;;;;;;2.65;0.90;;;19.10;62.40;20.80;100202.00;;;;5379427;26;20230;-76
2024/04/09 01:55:47;;;;;;;1.80;0.70;;;19.10;62.40;20.80;100200.00;;;;5374883;26;20242;-76
2024/04/09 01:58:18;;;;;;;1.80;1.00;;;19.10;62.40;20.70;100208.00;;;;5376025;26;20788;-76
2024/04/09 02:00:44;;;;;;;2.08;1.33;;;19.10;62.60;20.70;100198.00;;;;5377567;26;20279;-76
2024/04/09 02:03:13;;;;;;;1.60;0.80;;;19.10;62.60;20.70;100188.00;;;;5392118;26;20276;-76
2024/04/09 02:05:39;;;;;;;6.00;1.20;;;19.10;62.60;20.70;100183.00;;;;5385872;26;20242;-76
2024/04/09 02:08:08;;;;;;;1.08;0.52;;;19.10;62.70;20.60;100189.00;;;;5395603;26;20341;-76
2024/04/09 02:10:35;;;;;;;2.75;1.02;;;19.00;62.60;20.60;100169.00;;;;5381415;26;20622;-77
2024/04/09 02:13:04;;;;;;;1.55;0.60;;;19.00;62.70;20.60;100144.00;;;;5374794;26;20560;-76
2024/04/09 02:15:32;;;;;;;1.67;0.98;;;19.00;62.80;20.60;100117.00;;;;5374334;26;20645;-76
2024/04/09 02:18:01;;;;;;;1.90;0.50;;;19.00;62.90;20.60;100100.00;;;;5376983;26;20583;-76
2024/04/09 02:20:29;;;;;;;2.45;0.80;;;18.90;62.80;20.60;100117.00;;;;5375568;26;20330;-76
2024/04/09 02:22:57;;;;;;;2.70;0.55;;;18.90;62.80;20.60;100158.00;;;;5380356;26;20751;-76
2024/04/09 02:25:23;;;;;;;1.60;0.82;;;18.90;62.90;20.50;100195.00;;;;5381112;26;20391;-76
2024/04/09 02:27:52;;;;;;;3.70;0.55;;;18.90;63.10;20.50;100215.00;;;;5375155;26;20242;-76
2024/04/09 02:30:19;;;;;;;1.58;0.55;;;18.90;63.20;20.50;100231.00;;;;5374938;26;20298;-76
2024/04/09 02:32:50;;;;;;;2.20;0.73;;;18.90;63.30;20.50;100227.00;;;;5373144;26;20234;-76
2024/04/09 02:35:19;;;;;;;2.65;0.95;;;18.90;63.50;20.50;100239.00;;;;5380410;26;20351;-76
2024/04/09 02:37:48;;;;;;;2.15;0.57;;;18.90;63.30;20.50;100246.00;;;;5382969;26;20660;-76
2024/04/09 02:40:15;;;;;;;3.20;0.70;;;18.80;63.30;20.40;100260.00;;;;5374514;26;20234;-76
2024/04/09 02:42:45;;;;;;;2.80;0.75;;;18.80;63.30;20.40;100250.00;;;;5373570;26;20235;-75
2024/04/09 02:45:11;;;;;;;4.75;0.93;;;18.80;63.60;20.40;100256.00;;;;5374311;26;20226;-76
2024/04/09 02:47:40;;;;;;;1.58;0.73;;;18.80;63.60;20.40;100252.00;;;;5373981;26;20752;-76
2024/04/09 02:50:09;;;;;;;0.88;0.75;;;18.80;63.60;20.30;100252.00;;;;5374093;26;20234;-76
2024/04/09 02:52:38;;;;;;;4.20;1.15;;;18.80;63.70;20.40;100271.00;;;;5375614;26;20234;-76
2024/04/09 02:55:06;;;;;;;4.22;1.83;;;18.70;63.80;20.40;100272.00;;;;5373701;26;20352;-76
2024/04/09 02:57:35;;;;;;;1.65;1.27;;;18.70;63.90;20.30;100267.00;;;;5379753;26;20234;-76
2024/04/09 03:00:01;;;;;;;1.58;1.33;;;18.70;63.70;20.30;100259.00;;;;5377996;26;20739;-76
2024/04/09 03:02:29;;;;;;;5.15;1.90;;;18.70;63.60;20.20;100259.00;;;;5389627;26;20802;-76
2024/04/09 03:04:55;;;;;;;2.67;1.50;;;18.70;63.70;20.20;100260.00;;;;5373502;26;20238;-76
2024/04/09 03:07:26;;;;;;;1.77;1.48;;;18.70;63.70;20.20;100275.00;;;;5377240;26;20347;-76
2024/04/09 03:09:53;;;;;;;1.75;1.60;;;18.70;63.80;20.20;100283.00;;;;5387085;26;20655;-76
2024/04/09 03:12:22;;;;;;;2.03;1.52;;;18.60;63.80;20.20;100271.00;;;;5373700;26;20756;-75
2024/04/09 03:14:50;;;;;;;2.42;1.70;;;18.60;63.80;20.20;100274.00;;;;5374003;26;20330;-76
2024/04/09 03:17:18;;;;;;;3.10;1.67;;;18.60;63.80;20.20;100264.00;;;;5375094;26;20254;-76
2024/04/09 03:19:48;;;;;;;2.15;1.60;;;18.60;63.80;20.20;100267.00;;;;5381679;26;20246;-76
2024/04/09 03:22:17;;;;;;;1.92;1.63;;;18.60;63.90;20.20;100262.00;;;;5374780;26;20269;-76
2024/04/09 03:24:47;;;;;;;2.17;1.40;;;18.60;63.70;20.10;100257.00;;;;5372692;26;20253;-76
2024/04/09 03:27:16;;;;;;;2.95;1.23;;;18.60;63.50;20.10;100262.00;;;;5374633;26;20282;-77
2024/04/09 03:29:42;;;;;;;2.45;1.10;;;18.60;63.30;20.10;100256.00;;;;5373649;26;20286;-76
2024/04/09 03:32:11;;;;;;;2.47;1.25;;;18.60;63.30;20.10;100248.00;;;;5373560;26;20234;-77
2024/04/09 03:34:37;;;;;;;2.08;1.02;;;18.50;63.20;20.10;100248.00;;;;5375237;26;20261;-76
2024/04/09 03:37:06;;;;;;;2.08;1.20;;;18.50;63.10;20.10;100243.00;;;;5378475;26;20587;-76
2024/04/09 03:39:35;;;;;;;1.48;1.20;;;18.50;63.10;20.10;100244.00;;;;5384806;26;20246;-77
2024/04/09 03:42:07;;;;;;;1.98;1.30;;;18.50;63.10;20.10;100253.00;;;;5376759;26;20361;-76
2024/04/09 03:44:36;;;;;;;2.92;1.38;;;18.50;63.20;20.10;100260.00;;;;5378110;26;20234;-76
2024/04/09 03:47:04;;;;;;;1.70;1.10;;;18.50;63.10;20.10;100277.00;;;;5404054;26;20229;-76
2024/04/09 03:49:32;;;;;;;4.35;1.25;;;18.40;63.10;20.10;100282.00;;;;5375292;26;20281;-76
2024/04/09 03:51:58;;;;;;;3.00;1.25;;;18.40;63.20;20.10;100269.00;;;;5384848;26;20242;-76
2024/04/09 03:54:27;;;;;;;3.25;1.77;;;18.40;63.20;20.00;100246.00;;;;5390868;26;20233;-76
2024/04/09 03:56:53;;;;;;;2.53;1.10;;;18.40;63.20;20.00;100218.00;;;;5389521;26;20337;-76
2024/04/09 03:59:24;;;;;;;2.25;1.23;;;18.40;63.20;19.90;100245.00;;;;5379889;26;20234;-76
2024/04/09 04:01:50;;;;;;;2.08;1.40;;;18.40;63.10;19.90;100249.00;;;;5382906;26;20250;-76
2024/04/09 04:04:19;;;;;;;2.85;1.58;;;18.30;63.00;19.90;100258.00;;;;5376755;26;20282;-76
2024/04/09 04:06:45;;;;;;;1.80;1.40;;;18.30;63.10;19.90;100271.00;;;;5377503;26;20279;-76
2024/04/09 04:09:14;;;;;;;4.45;2.10;;;18.30;63.00;19.90;100290.00;;;;5379568;26;20242;-75
2024/04/09 04:11:40;;;;;;;2.63;1.73;;;18.30;63.10;19.90;100307.00;;;;5378599;26;20250;-76
2024/04/09 04:14:09;;;;;;;2.22;1.73;;;18.30;63.10;19.90;100291.00;;;;5380706;26;20308;-76
2024/04/09 04:16:37;;;;;;;3.20;2.13;;;18.20;63.10;19.80;100301.00;;;;5377780;26;20277;-76
2024/04/09 04:19:06;;;;;;;5.57;2.38;;;18.20;63.20;19.80;100299.00;;;;5396864;26;20237;-76
2024/04/09 04:21:32;;;;;;;5.38;2.40;;;18.20;63.10;19.80;100314.00;;;;5377947;26;20342;-76
2024/04/09 04:24:01;;;;;;;5.07;2.47;;;18.20;63.20;19.80;100323.00;;;;5385003;26;20233;-76
2024/04/09 04:26:27;;;;;;;6.53;2.53;;;18.20;63.20;19.80;100332.00;;;;5374995;26;20334;-76
2024/04/09 04:28:59;;;;;;;4.68;2.72;;;18.10;63.10;19.80;100330.00;;;;5382119;26;20285;-76
2024/04/09 04:31:25;;;;;;;6.65;2.63;;;18.10;63.20;19.70;100334.00;;;;5376700;26;20234;-76
2024/04/09 04:33:57;;;;;;;5.53;2.80;;;18.10;63.20;19.70;100352.00;;;;5376953;26;20270;-76
2024/04/09 04:36:22;;;;;;;5.05;2.60;;;18.10;63.30;19.70;100366.00;;;;5372065;26;20238;-76
2024/04/09 04:38:52;;;;;;;4.18;2.75;;;18.10;63.30;19.70;100358.00;;;;5383402;26;20956;-76
2024/04/09 04:41:18;;;;;;;4.45;2.80;;;18.10;63.50;19.70;100365.00;;;;5376305;26;20359;-75
2024/04/09 04:43:46;;;;;;;5.10;2.92;;;18.00;63.40;19.70;100373.00;;;;5392771;26;20241;-75
2024/04/09 04:46:12;;;;;;;3.15;2.47;;;18.00;63.50;19.70;100378.00;;;;5376586;26;20578;-75
2024/04/09 04:48:43;;;;;;;4.53;2.72;;;18.00;63.50;19.70;100376.00;;;;5388964;26;20233;-75
2024/04/09 04:51:11;;;;;;;3.65;2.92;;;18.00;63.60;19.70;100377.00;;;;5394944;26;20604;-76
2024/04/09 04:53:40;;;;;;;7.40;2.72;;;18.00;63.70;19.70;100389.00;;;;5380610;26;20335;-75
2024/04/09 04:56:06;;;;;;;3.45;2.63;;;18.00;63.70;19.70;100397.00;;;;5375765;26;20326;-75
2024/04/09 04:58:35;;;;;;;4.00;3.17;;;18.00;63.60;19.60;100396.00;;;;5379373;26;20226;-75
2024/04/09 05:01:00;;;;;;;6.38;3.30;;;18.00;63.50;19.60;100396.00;;;;5366543;26;20246;-76
2024/04/09 05:03:29;;;;;;;4.38;3.45;;;18.00;63.50;19.60;100393.00;;;;5375275;26;20316;-75
2024/04/09 05:05:55;;;;;;;5.90;3.70;;;17.90;63.40;19.60;100400.00;;;;5373657;26;20372;-75
2024/04/09 05:08:26;;;;;;;6.32;3.17;;;17.90;63.40;19.50;100403.00;;;;5384389;26;20718;-75
2024/04/09 05:10:52;;;;;;;7.60;3.60;;;17.90;63.40;19.50;100405.00;;;;5397575;26;20246;-75
2024/04/09 05:13:21;;;;;;;3.95;2.85;;;17.90;63.40;19.50;100405.00;;;;5379618;26;20331;-75
2024/04/09 05:15:47;;;;;;;6.07;3.22;;;17.90;63.40;19.40;100413.00;;;;5390041;26;20234;-76
2024/04/09 05:18:15;;;;;;;2.88;2.15;;;17.80;63.20;19.40;100429.00;;;;5375638;26;20268;-76
2024/04/09 05:20:42;;;;;;;4.28;1.80;;;17.80;63.00;19.30;100439.00;;;;5394768;26;20379;-76
2024/04/09 05:23:10;;;;;;;2.65;1.25;;;17.80;62.70;19.30;100447.00;;;;5380883;26;20269;-76
2024/04/09 05:25:39;;;;;;;1.73;0.82;;;17.70;62.40;19.20;100442.00;;;;5372500;26;20566;-76
2024/04/09 05:28:08;;;;;;;4.43;1.00;;;17.70;62.20;19.10;100431.00;;;;5375567;26;20230;-77
2024/04/09 05:30:34;;;;;;;2.35;0.88;;;17.60;62.10;19.10;100437.00;;;;5373514;26;20242;-75
2024/04/09 05:33:02;;;;;;;0.88;0.40;;;17.50;62.10;19.00;100446.00;;;;5373920;26;20245;-76
2024/04/09 05:35:28;;;;;;;1.83;0.40;;;17.50;62.20;18.90;100462.00;;;;5373953;26;20273;-75
2024/04/09 05:37:57;;;;;;;2.72;0.50;;;17.40;62.30;18.90;100454.00;;;;5375251;26;20864;-76
2024/04/09 05:40:23;;;;;;;1.40;0.60;;;17.30;62.20;18.80;100454.00;;;;5380596;26;20738;-75
2024/04/09 05:42:54;;;;;;;3.70;0.50;;;17.20;62.20;18.70;100448.00;;;;5375727;26;20341;-76
2024/04/09 05:45:21;;;;;;;4.32;0.50;;;17.20;62.50;18.70;100447.00;;;;5376002;26;20234;-76
2024/04/09 05:47:50;;;;;;;2.70;0.70;;;17.10;62.50;18.70;100447.00;;;;5373567;26;20272;-75
2024/04/09 05:50:16;;;;;;;1.77;0.40;;;17.10;62.60;18.60;100441.00;;;;5379312;26;20296;-76
2024/04/09 05:52:45;;;;;;;1.88;0.50;;;17.00;62.60;18.60;100433.00;;;;5366564;26;20282;-76
2024/04/09 05:55:12;;;;;;;1.58;0.50;;;17.00;62.70;18.60;100437.00;;;;5373779;26;20373;-75
2024/04/09 05:57:41;;;;;;;1.38;0.52;;;16.90;62.80;18.50;100433.00;;;;5372591;26;20636;-75
2024/04/09 06:00:13;;;;;;;2.78;0.80;;;16.90;62.90;18.50;100436.00;;;;5376410;26;20234;-76
2024/04/09 06:02:47;;;;;;;3.50;0.68;;;16.90;63.10;18.40;100437.00;;;;5374230;26;20338;-75
2024/04/09 06:05:15;;;;;;;3.70;0.80;;;16.80;63.00;18.40;100434.00;;;;5372566;26;20298;-77
2024/04/09 06:07:44;;;;;;;3.08;1.17;;;16.80;63.10;18.40;100438.00;;;;5372270;26;20234;-78
2024/04/09 06:10:15;;;;;;;2.13;0.50;;;16.80;63.10;18.40;100446.00;;;;5382620;26;20918;-77
2024/04/09 06:12:41;;;;;;;2.13;0.60;;;16.70;63.00;18.30;100446.00;;;;5374564;26;20346;-78
2024/04/09 06:15:12;;;;;;;2.40;0.70;;;16.70;63.00;18.20;100446.00;;;;5375021;26;21090;-78
2024/04/09 06:17:38;;;;;;;1.90;0.75;;;16.70;63.20;18.20;100445.00;;;;5375241;26;20351;-78
2024/04/09 06:20:08;;;;;;;3.13;1.00;;;16.60;63.00;18.20;100449.00;;;;5371768;26;20234;-77
2024/04/09 06:22:35;;;;;;;2.33;0.93;;;16.60;63.20;18.20;100439.00;;;;5372124;26;21114;-78
2024/04/09 06:25:04;;;;;;;1.48;0.90;;;16.60;63.20;18.10;100432.00;;;;5375231;26;20461;-78
2024/04/09 06:27:30;;;;;;;1.98;0.90;;;16.50;63.30;18.10;100414.00;;;;5375469;26;20364;-78
2024/04/09 06:29:59;;;;;;;1.88;1.08;;;16.50;63.40;18.10;100415.00;;;;5375560;26;20277;-77
2024/04/09 06:32:27;;;;;;;2.28;1.00;;;16.50;63.60;18.10;100411.00;;;;5371949;26;20248;-78
2024/04/09 06:34:56;;;;;;;3.38;1.15;;;16.50;63.70;18.10;100412.00;;;;5375298;26;20273;-77
2024/04/09 06:37:22;;;;;;;2.17;0.77;;;16.50;63.80;18.20;100416.00;;;;5375193;26;20334;-78
2024/04/09 06:39:51;;;;;;;2.10;1.08;;;16.50;63.80;18.20;100422.00;;;;5375323;26;20234;-78
2024/04/09 06:42:17;;;;;;;6.20;1.48;;;16.50;63.90;18.20;100431.00;;;;5375626;26;20227;-77
2024/04/09 06:44:46;;;;;;;2.15;1.20;;;16.50;64.10;18.20;100436.00;;;;5374669;26;20335;-77
2024/04/09 06:47:12;;;;;;;4.05;1.20;;;16.60;64.20;18.30;100423.00;;;;5359483;26;20352;-77
2024/04/09 06:49:46;;;;;;;2.05;1.13;;;16.60;64.30;18.30;100436.00;;;;5355228;26;20345;-78
2024/04/09 06:52:12;;;;;;;3.63;1.70;;;16.60;64.40;18.40;100451.00;;;;5375531;26;20278;-77
2024/04/09 06:54:41;;;;;;;3.60;1.58;;;16.70;64.50;18.40;100444.00;;;;5372016;26;20234;-77
2024/04/09 06:57:07;;;;;;;4.70;2.03;;;16.70;64.40;18.50;100431.00;;;;5371994;26;20330;-77
2024/04/09 06:59:35;;;;;;;4.38;1.58;;;16.70;64.50;18.50;100436.00;;;;5373809;26;20528;-77
2024/04/09 07:02:02;;;;;;;3.28;1.73;;;16.80;64.40;18.50;100445.00;;;;5374906;26;20230;-77
2024/04/09 07:04:30;;;;;;;2.95;1.45;;;16.80;63.90;18.50;100458.00;;;;5373090;26;21013;-77
2024/04/09 07:06:59;;;;;;;1.67;1.38;;;16.80;63.60;18.50;100476.00;;;;5374488;26;20242;-77
2024/04/09 07:09:28;;;;;;;6.05;1.65;;;16.80;63.20;18.50;100485.00;;;;5374802;26;20342;-77
2024/04/09 07:11:54;;;;;;;1.93;0.80;;;16.80;62.80;18.50;100489.00;;;;5004576;26;10000475;-77
2024/04/09 07:14:22;;;;;;;3.25;0.90;;;16.80;62.30;18.50;100497.00;;;;5378863;26;20457;-77
2024/04/09 07:16:49;;;;;;;1.85;0.65;;;16.80;61.80;18.50;100508.00;;;;5393523;26;20242;-78
2024/04/09 07:19:18;;;;;;;1.45;0.70;;;16.80;61.40;18.40;100504.00;;;;5378664;26;20579;-78
2024/04/09 07:21:44;;;;;;;1.35;0.55;;;16.80;61.20;18.40;100513.00;;;;5378155;26;20235;-77
2024/04/09 07:24:15;;;;;;;2.70;0.85;;;16.90;61.00;18.40;100521.00;;;;5374455;26;20288;-79
2024/04/09 07:26:41;;;;;;;1.90;0.82;;;16.90;60.80;18.40;100510.00;;;;5376763;26;20350;-77
2024/04/09 07:29:10;;;;;;;2.83;0.60;;;16.80;60.50;18.40;100513.00;;;;5369686;26;20241;-77
2024/04/09 07:31:36;;;;;;;1.83;0.70;;;16.80;60.50;18.40;100512.00;;;;5377169;26;20242;-77
2024/04/09 07:34:05;;;;;;;4.20;1.10;;;16.80;60.60;18.50;100503.00;;;;5377774;26;20347;-77
2024/04/09 07:36:32;;;;;;;3.13;1.30;;;16.90;60.80;18.50;100497.00;;;;5376784;26;20796;-76
2024/04/09 07:39:00;;;;;;;1.67;0.50;;;16.90;61.00;18.60;100525.00;;;;5377113;26;20234;-77
2024/04/09 07:41:29;;;;;;;3.22;0.60;;;16.90;60.80;18.60;100538.00;;;;5385127;26;20722;-77
2024/04/09 07:43:58;;;;;;;3.25;0.80;;;17.00;60.10;18.60;100531.00;;;;5388844;26;20246;-77
2024/04/09 07:46:24;;;;;;;1.55;0.73;;;17.00;59.40;18.60;100537.00;;;;5376856;26;20242;-77
2024/04/09 07:48:54;;;;;;;3.08;0.80;;;17.00;59.30;18.60;100550.00;;;;5377861;26;20242;-77
2024/04/09 07:51:21;;;;;;;2.20;0.90;;;17.00;58.10;18.50;100535.00;;;;5377492;26;20322;-77
2024/04/09 07:53:49;;;;;;;2.20;0.57;;;16.90;58.80;18.50;100542.00;;;;5376587;26;20234;-77
2024/04/09 07:56:15;;;;;;;3.10;0.85;;;16.90;58.20;18.50;100536.00;;;;5376535;26;20250;-77
2024/04/09 07:58:47;;;;;;;3.28;0.60;;;16.90;57.70;18.40;100538.00;;;;5377591;26;20711;-77
2024/04/09 08:01:13;;;;;;;1.67;0.88;;;16.90;57.50;18.40;100538.00;;;;5376208;26;20347;-77
2024/04/09 08:03:43;;;;;;;2.25;0.60;;;16.90;57.40;18.40;100540.00;;;;5377594;26;20276;-77
2024/04/09 08:06:10;;;;;;;2.53;0.80;;;16.80;57.70;18.40;100541.00;;;;5377348;26;20305;-77
2024/04/09 08:08:39;;;;;;;1.73;0.98;;;16.80;58.10;18.30;100556.00;;;;5377549;26;20331;-77
2024/04/09 08:11:07;;;;;;;3.00;0.60;;;16.80;57.60;18.40;100555.00;;;;5374886;26;20238;-77
2024/04/09 08:13:36;;;;;;;1.60;0.43;;;16.80;57.70;18.40;100550.00;;;;5378608;26;20234;-76
2024/04/09 08:16:06;;;;;;;1.83;0.90;;;16.80;57.80;18.40;100568.00;;;;5376800;26;20677;-77
2024/04/09 08:18:35;;;;;;;1.65;0.80;;;16.90;57.50;18.50;100547.00;;;;5377285;26;20226;-77
2024/04/09 08:21:01;;;;;;;4.70;1.75;;;16.90;57.30;18.50;100550.00;;;;5375667;26;20234;-77
2024/04/09 08:23:30;;;;;;;7.00;1.50;;;16.80;56.50;18.40;100553.00;;;;5375680;26;20234;-77
2024/04/09 08:25:57;;;;;;;2.03;1.10;;;16.80;56.60;18.40;100567.00;;;;5374709;26;20238;-77
2024/04/09 08:28:26;;;;;;;3.75;1.60;;;16.80;56.90;18.40;100582.00;;;;5374406;26;20288;-77
2024/04/09 08:30:52;;;;;;;2.17;1.20;;;16.80;56.40;18.30;100592.00;;;;5377521;26;20242;-77
2024/04/09 08:33:23;;;;;;;5.05;1.67;;;16.80;56.10;18.30;100586.00;;;;5378224;26;20328;-77
2024/04/09 08:35:49;;;;;;;2.90;1.13;;;16.70;55.40;18.30;100602.00;;;;5375659;26;20294;-77
2024/04/09 08:38:20;;;;;;;3.08;1.45;;;16.70;56.00;18.30;100608.00;;;;5376352;26;20268;-77
2024/04/09 08:40:46;;;;;;;2.30;1.10;;;16.70;56.00;18.30;100617.00;;;;5375166;26;20582;-76
2024/04/09 08:43:18;;;;;;;3.70;1.25;;;16.70;56.60;18.20;100604.00;;;;5376830;26;20273;-77
2024/04/09 08:45:45;;;;;;;2.42;1.10;;;16.70;56.00;18.20;100629.00;;;;5376444;26;20736;-77
2024/04/09 08:48:16;;;;;;;3.03;0.93;;;16.70;56.00;18.20;100647.00;;;;5376970;26;20268;-76
2024/04/09 08:50:52;;;;;;;6.78;0.90;;;16.70;55.30;18.10;100647.00;;;;5402920;26;20341;-78
2024/04/09 08:53:23;;;;;;;3.08;0.93;;;16.70;55.10;18.10;100653.00;;;;5394591;26;20241;-77
2024/04/09 08:55:51;;;;;;;4.82;1.00;;;16.60;55.30;18.10;100655.00;;;;5375364;26;20269;-77
2024/04/09 08:58:17;;;;;;;3.70;0.98;;;16.60;55.10;18.00;100651.00;;;;5377091;26;20298;-77
2024/04/09 09:00:46;;;;;;;2.75;0.85;;;16.50;55.50;18.10;100654.00;;;;5376806;26;20234;-77
2024/04/09 09:03:13;;;;;;;2.60;0.60;;;16.50;55.60;18.10;100644.00;;;;5374724;26;20242;-77
2024/04/09 09:05:41;;;;;;;1.27;0.40;;;16.50;55.80;18.10;100650.00;;;;5375440;26;20242;-77
2024/04/09 09:08:10;;;;;;;5.72;0.73;;;16.50;55.50;18.00;100642.00;;;;5408934;26;20217;-77
2024/04/09 09:10:39;;;;;;;2.17;0.65;;;16.50;55.30;18.00;100646.00;;;;5376388;26;20350;-77
2024/04/09 09:13:06;;;;;;;1.55;0.35;;;16.40;55.00;18.00;100648.00;;;;5373938;26;20272;-77
2024/04/09 09:15:35;;;;;;;2.45;0.47;;;16.40;55.10;18.00;100644.00;;;;5374795;26;20720;-77
2024/04/09 09:18:02;;;;;;;4.68;0.70;;;16.40;55.20;18.00;100656.00;;;;5374754;26;20238;-77
2024/04/09 09:20:31;;;;;;;2.95;0.73;;;16.50;55.30;18.10;100645.00;;;;5376742;26;20234;-77
2024/04/09 09:22:59;;;;;;;2.05;0.80;;;16.50;55.50;18.10;100641.00;;;;5374026;26;20342;-77
2024/04/09 09:25:31;;;;;;;4.38;0.57;;;16.50;55.30;18.10;100643.00;;;;5376527;26;20285;-77
2024/04/09 09:28:07;;;;;;;2.85;0.73;;;16.50;55.50;18.20;100652.00;;;;5375215;26;20702;-78
2024/04/09 09:30:43;;;;;;;2.97;0.80;;;16.60;55.30;18.20;100653.00;;;;5371606;26;20233;-77
2024/04/09 09:33:18;;;;;;;2.08;0.32;;;16.60;55.00;18.20;100648.00;;;;5373403;26;20257;-76
2024/04/09 09:35:51;;;;;;;3.53;0.75;;;16.70;55.00;18.30;100644.00;;;;5376077;26;20763;-77
2024/04/09 09:38:17;;;;;;;1.20;0.35;;;16.70;55.30;18.30;100639.00;;;;5376785;26;20307;-77
2024/04/09 09:40:51;;;;;;;1.05;0.60;;;16.70;54.70;18.30;100648.00;;;;5376393;26;20234;-77
2024/04/09 09:43:19;;;;;;;1.75;0.30;;;16.70;54.20;18.40;100641.00;;;;5375056;26;20338;-77
2024/04/09 09:45:49;;;;;;;1.70;0.45;;;16.80;54.80;18.50;100635.00;;;;5375948;26;20230;-77
2024/04/09 09:48:18;;;;;;;2.55;0.50;;;16.90;54.90;18.60;100645.00;;;;5374551;26;20246;-77
2024/04/09 09:50:47;;;;;;;0.68;0.20;;;16.90;54.80;18.70;100664.00;;;;5366783;26;20586;-77
2024/04/09 09:53:13;;;;;;;1.65;0.45;;;17.00;54.80;18.80;100656.00;;;;5361198;26;20242;-77
2024/04/09 09:55:45;;;;;;;5.82;0.63;;;17.00;55.10;18.90;100636.00;;;;5367366;26;20771;-77
2024/04/09 09:58:22;;;;;;;1.48;0.50;;;17.10;54.70;18.90;100647.00;;;;5394367;26;20233;-77
2024/04/09 10:00:50;;;;;;;5.40;0.68;;;17.20;54.70;19.10;100663.00;;;;5380791;26;20241;-76
2024/04/09 10:03:20;;;;;;;3.35;0.50;;;17.40;54.40;19.10;100654.00;;;;5375757;26;20291;-77
2024/04/09 10:05:46;;;;;;;4.38;0.75;;;17.40;53.90;19.20;100658.00;;;;5373295;26;20247;-77
2024/04/09 10:08:22;;;;;;;1.35;0.28;;;17.50;53.80;19.10;100666.00;;;;5371567;26;20271;-76
2024/04/09 10:10:50;;;;;;;2.15;0.35;;;17.50;53.80;19.20;100664.00;;;;5375649;26;20237;-77
2024/04/09 10:13:23;;;;;;;1.67;0.30;;;17.60;53.50;19.20;100649.00;;;;5341384;26;20227;-77
2024/04/09 10:15:50;;;;;;;0.75;0.20;;;17.60;53.50;19.30;100657.00;;;;5396919;26;20272;-77
2024/04/09 10:18:37;;;;;;;1.42;0.40;;;17.60;53.30;19.20;100661.00;;;;5372801;26;21150;-77
2024/04/09 10:21:04;;;;;;;1.27;0.30;;;17.70;53.10;19.30;100663.00;;;;5374520;26;20774;-77
2024/04/09 10:23:38;;;;;;;1.20;0.30;;;17.70;53.30;19.30;100670.00;;;;5375156;26;20970;-77
2024/04/09 10:26:05;;;;;;;2.05;0.35;;;17.70;53.80;19.40;100673.00;;;;5375097;26;20234;-78
2024/04/09 10:28:38;;;;;;;2.25;0.45;;;17.80;53.60;19.40;100672.00;;;;5375052;26;20226;-77
2024/04/09 10:31:06;;;;;;;3.00;0.32;;;17.80;52.30;19.40;100698.00;;;;5348496;26;20294;-77
2024/04/09 10:33:36;;;;;;;0.80;0.30;;;17.90;52.90;19.40;100695.00;;;;5389785;26;20308;-77
2024/04/09 10:36:07;;;;;;;1.25;0.30;;;17.90;52.40;19.40;100700.00;;;;5374579;26;20676;-77
2024/04/09 10:38:41;;;;;;;1.77;0.30;;;17.90;52.20;19.40;100701.00;;;;5374248;26;20260;-77
2024/04/09 10:41:11;;;;;;;1.55;0.45;;;17.90;52.20;19.40;100697.00;;;;5375291;26;20268;-77
2024/04/09 10:43:40;;;;;;;1.27;0.30;;;17.90;52.60;19.40;100710.00;;;;5377147;26;20571;-77
2024/04/09 10:46:08;;;;;;;0.82;0.13;;;17.90;52.10;19.40;100717.00;;;;5378075;26;20234;-77
2024/04/09 10:48:34;;;;;;;2.97;0.60;;;17.90;52.00;19.40;100721.00;;;;5385318;26;20233;-76
2024/04/09 10:51:04;;;;;;;0.88;0.40;;;17.90;52.00;19.40;100730.00;;;;5377967;26;20588;-77
2024/04/09 10:53:35;;;;;;;2.10;0.43;;;17.80;52.20;19.40;100723.00;;;;5378686;26;20409;-77